sensor_id;sensor_type;location;lat;lon;timestamp;P1;durP1;ratioP1;P2;durP2;ratioP2
6207;SDS011;3137;51.550;7.060;2022-09-20T00:00:40;3.57;;;3.40;;
6207;SDS011;3137;51.550;7.060;2022-09-20T00:03:09;3.73;;;3.50;;
6207;SDS011;3137;51.550;7.060;2022-09-20T00:05:37;4.47;;;3.73;;
6207;SDS011;3137;51.550;7.060;2022-09-20T00:08:06;8.83;;;3.47;;
6207;SDS011;3137;51.550;7.060;2022-09-20T00:10:33;4.27;;;3.17;;
6207;SDS011;3137;51.550;7.060;2022-09-20T00:13:04;8.73;;;2.93;;
6207;SDS011;3137;51.550;7.060;2022-09-20T00:15:33;5.17;;;3.23;;
6207;SDS011;3137;51.550;7.060;2022-09-20T00:17:59;3.93;;;2.80;;
6207;SDS011;3137;51.550;7.060;2022-09-20T00:20:26;2.80;;;2.57;;
6207;SDS011;3137;51.550;7.060;2022-09-20T00:22:52;3.10;;;2.73;;
6207;SDS011;3137;51.550;7.060;2022-09-20T00:25:19;2.60;;;2.50;;
6207;SDS011;3137;51.550;7.060;2022-09-20T00:27:45;9.80;;;2.77;;
6207;SDS011;3137;51.550;7.060;2022-09-20T00:30:12;3.80;;;3.50;;
6207;SDS011;3137;51.550;7.060;2022-09-20T00:32:39;8.23;;;3.17;;
6207;SDS011;3137;51.550;7.060;2022-09-20T00:35:06;4.53;;;3.23;;
6207;SDS011;3137;51.550;7.060;2022-09-20T00:37:33;3.73;;;3.53;;
6207;SDS011;3137;51.550;7.060;2022-09-20T00:40:00;9.67;;;2.80;;
6207;SDS011;3137;51.550;7.060;2022-09-20T00:42:28;3.57;;;3.27;;
6207;SDS011;3137;51.550;7.060;2022-09-20T00:44:59;3.50;;;3.17;;
6207;SDS011;3137;51.550;7.060;2022-09-20T00:47:28;3.30;;;3.20;;
6207;SDS011;3137;51.550;7.060;2022-09-20T00:52:46;2.87;;;2.83;;
6207;SDS011;3137;51.550;7.060;2022-09-20T00:55:13;3.57;;;3.30;;
6207;SDS011;3137;51.550;7.060;2022-09-20T00:57:42;7.07;;;3.60;;
6207;SDS011;3137;51.550;7.060;2022-09-20T01:00:09;7.10;;;3.60;;
6207;SDS011;3137;51.550;7.060;2022-09-20T01:02:37;3.00;;;2.90;;
6207;SDS011;3137;51.550;7.060;2022-09-20T01:05:06;2.53;;;2.53;;
6207;SDS011;3137;51.550;7.060;2022-09-20T01:07:34;2.90;;;2.70;;
6207;SDS011;3137;51.550;7.060;2022-09-20T01:10:01;2.70;;;2.60;;
6207;SDS011;3137;51.550;7.060;2022-09-20T01:12:29;5.63;;;2.63;;
6207;SDS011;3137;51.550;7.060;2022-09-20T01:14:59;2.97;;;2.87;;
6207;SDS011;3137;51.550;7.060;2022-09-20T01:17:26;9.30;;;3.97;;
6207;SDS011;3137;51.550;7.060;2022-09-20T01:28:15;4.70;;;4.30;;
6207;SDS011;3137;51.550;7.060;2022-09-20T01:33:39;3.43;;;3.33;;
6207;SDS011;3137;51.550;7.060;2022-09-20T01:36:08;4.20;;;3.43;;
6207;SDS011;3137;51.550;7.060;2022-09-20T01:38:42;3.00;;;2.90;;
6207;SDS011;3137;51.550;7.060;2022-09-20T01:50:21;5.50;;;3.97;;
6207;SDS011;3137;51.550;7.060;2022-09-20T02:10:08;4.60;;;4.20;;
6207;SDS011;3137;51.550;7.060;2022-09-20T02:12:49;4.63;;;4.43;;
6207;SDS011;3137;51.550;7.060;2022-09-20T02:18:09;4.73;;;4.60;;
6207;SDS011;3137;51.550;7.060;2022-09-20T02:20:42;9.67;;;5.23;;
6207;SDS011;3137;51.550;7.060;2022-09-20T02:23:33;4.80;;;4.70;;
6207;SDS011;3137;51.550;7.060;2022-09-20T02:26:08;4.83;;;4.53;;
6207;SDS011;3137;51.550;7.060;2022-09-20T02:31:37;4.17;;;4.07;;
6207;SDS011;3137;51.550;7.060;2022-09-20T02:39:44;3.87;;;3.57;;
6207;SDS011;3137;51.550;7.060;2022-09-20T02:42:24;4.80;;;4.20;;
6207;SDS011;3137;51.550;7.060;2022-09-20T02:45:26;3.90;;;3.80;;
6207;SDS011;3137;51.550;7.060;2022-09-20T02:48:02;3.70;;;3.47;;
6207;SDS011;3137;51.550;7.060;2022-09-20T02:58:51;4.10;;;4.00;;
6207;SDS011;3137;51.550;7.060;2022-09-20T03:01:39;4.13;;;3.90;;
6207;SDS011;3137;51.550;7.060;2022-09-20T03:07:08;4.47;;;4.17;;
6207;SDS011;3137;51.550;7.060;2022-09-20T03:09:53;5.10;;;4.90;;
6207;SDS011;3137;51.550;7.060;2022-09-20T03:15:29;6.07;;;5.50;;
6207;SDS011;3137;51.550;7.060;2022-09-20T03:23:12;4.13;;;3.83;;
6207;SDS011;3137;51.550;7.060;2022-09-20T03:28:23;3.30;;;3.10;;
6207;SDS011;3137;51.550;7.060;2022-09-20T03:39:26;3.90;;;3.80;;
6207;SDS011;3137;51.550;7.060;2022-09-20T03:42:25;4.27;;;4.27;;
6207;SDS011;3137;51.550;7.060;2022-09-20T04:04:38;3.87;;;3.77;;
6207;SDS011;3137;51.550;7.060;2022-09-20T04:10:28;4.53;;;4.30;;
6207;SDS011;3137;51.550;7.060;2022-09-20T04:15:29;3.17;;;3.17;;
6207;SDS011;3137;51.550;7.060;2022-09-20T04:17:59;8.60;;;3.17;;
6207;SDS011;3137;51.550;7.060;2022-09-20T04:20:32;3.30;;;3.30;;
6207;SDS011;3137;51.550;7.060;2022-09-20T04:26:03;4.07;;;3.97;;
6207;SDS011;3137;51.550;7.060;2022-09-20T04:28:34;3.33;;;3.33;;
6207;SDS011;3137;51.550;7.060;2022-09-20T04:31:11;5.23;;;4.83;;
6207;SDS011;3137;51.550;7.060;2022-09-20T04:33:49;5.63;;;4.13;;
6207;SDS011;3137;51.550;7.060;2022-09-20T05:00:28;6.30;;;6.00;;
6207;SDS011;3137;51.550;7.060;2022-09-20T05:06:14;7.33;;;7.03;;
6207;SDS011;3137;51.550;7.060;2022-09-20T05:12:02;6.33;;;6.23;;
6207;SDS011;3137;51.550;7.060;2022-09-20T05:20:04;12.17;;;8.07;;
6207;SDS011;3137;51.550;7.060;2022-09-20T05:31:16;10.20;;;9.23;;
6207;SDS011;3137;51.550;7.060;2022-09-20T05:33:53;8.20;;;7.50;;
6207;SDS011;3137;51.550;7.060;2022-09-20T05:36:25;6.70;;;6.40;;
6207;SDS011;3137;51.550;7.060;2022-09-20T05:39:06;6.40;;;6.10;;
6207;SDS011;3137;51.550;7.060;2022-09-20T05:41:41;7.10;;;6.73;;
6207;SDS011;3137;51.550;7.060;2022-09-20T05:44:25;7.40;;;6.80;;
6207;SDS011;3137;51.550;7.060;2022-09-20T05:46:59;7.33;;;6.80;;
6207;SDS011;3137;51.550;7.060;2022-09-20T05:49:59;8.37;;;7.80;;
6207;SDS011;3137;51.550;7.060;2022-09-20T06:01:01;7.53;;;7.20;;
6207;SDS011;3137;51.550;7.060;2022-09-20T06:03:40;8.50;;;7.70;;
6207;SDS011;3137;51.550;7.060;2022-09-20T06:06:12;8.60;;;8.03;;
6207;SDS011;3137;51.550;7.060;2022-09-20T06:09:01;8.43;;;7.70;;
6207;SDS011;3137;51.550;7.060;2022-09-20T06:14:35;6.77;;;6.47;;
6207;SDS011;3137;51.550;7.060;2022-09-20T06:17:09;7.03;;;6.73;;
6207;SDS011;3137;51.550;7.060;2022-09-20T06:19:45;11.53;;;7.20;;
6207;SDS011;3137;51.550;7.060;2022-09-20T06:22:18;6.80;;;6.57;;
6207;SDS011;3137;51.550;7.060;2022-09-20T06:27:36;7.13;;;6.63;;
6207;SDS011;3137;51.550;7.060;2022-09-20T06:30:13;7.20;;;6.77;;
6207;SDS011;3137;51.550;7.060;2022-09-20T06:32:52;8.67;;;7.83;;
6207;SDS011;3137;51.550;7.060;2022-09-20T06:35:19;10.43;;;7.30;;
6207;SDS011;3137;51.550;7.060;2022-09-20T06:37:57;8.73;;;6.47;;
6207;SDS011;3137;51.550;7.060;2022-09-20T06:40:57;7.37;;;6.67;;
6207;SDS011;3137;51.550;7.060;2022-09-20T06:43:43;7.43;;;7.07;;
6207;SDS011;3137;51.550;7.060;2022-09-20T06:46:10;7.27;;;6.87;;
6207;SDS011;3137;51.550;7.060;2022-09-20T06:48:37;7.63;;;7.13;;
6207;SDS011;3137;51.550;7.060;2022-09-20T06:51:05;5.97;;;5.77;;
6207;SDS011;3137;51.550;7.060;2022-09-20T06:53:35;6.43;;;5.97;;
6207;SDS011;3137;51.550;7.060;2022-09-20T06:56:06;6.00;;;5.80;;
6207;SDS011;3137;51.550;7.060;2022-09-20T06:58:34;6.50;;;5.83;;
6207;SDS011;3137;51.550;7.060;2022-09-20T07:01:00;7.07;;;6.27;;
6207;SDS011;3137;51.550;7.060;2022-09-20T07:03:27;6.53;;;6.23;;
6207;SDS011;3137;51.550;7.060;2022-09-20T07:05:53;13.50;;;8.77;;
6207;SDS011;3137;51.550;7.060;2022-09-20T07:08:19;7.27;;;6.20;;
6207;SDS011;3137;51.550;7.060;2022-09-20T07:10:46;6.13;;;4.40;;
6207;SDS011;3137;51.550;7.060;2022-09-20T07:13:12;5.33;;;4.83;;
6207;SDS011;3137;51.550;7.060;2022-09-20T07:15:39;8.23;;;5.60;;
6207;SDS011;3137;51.550;7.060;2022-09-20T07:18:05;7.20;;;4.83;;
6207;SDS011;3137;51.550;7.060;2022-09-20T07:20:32;8.97;;;4.90;;
6207;SDS011;3137;51.550;7.060;2022-09-20T07:22:59;5.17;;;3.70;;
6207;SDS011;3137;51.550;7.060;2022-09-20T07:25:25;5.13;;;4.63;;
6207;SDS011;3137;51.550;7.060;2022-09-20T07:27:52;4.77;;;4.37;;
6207;SDS011;3137;51.550;7.060;2022-09-20T07:30:19;6.93;;;4.43;;
6207;SDS011;3137;51.550;7.060;2022-09-20T07:32:45;5.80;;;4.73;;
6207;SDS011;3137;51.550;7.060;2022-09-20T07:35:12;6.17;;;5.47;;
6207;SDS011;3137;51.550;7.060;2022-09-20T07:37:38;6.33;;;4.17;;
6207;SDS011;3137;51.550;7.060;2022-09-20T07:40:07;6.80;;;4.10;;
6207;SDS011;3137;51.550;7.060;2022-09-20T07:42:34;8.47;;;5.43;;
6207;SDS011;3137;51.550;7.060;2022-09-20T07:45:00;8.23;;;4.77;;
6207;SDS011;3137;51.550;7.060;2022-09-20T07:47:29;8.80;;;5.50;;
6207;SDS011;3137;51.550;7.060;2022-09-20T07:49:57;10.70;;;4.90;;
6207;SDS011;3137;51.550;7.060;2022-09-20T07:52:23;4.13;;;4.03;;
6207;SDS011;3137;51.550;7.060;2022-09-20T07:54:49;4.83;;;4.37;;
6207;SDS011;3137;51.550;7.060;2022-09-20T07:57:16;10.77;;;4.77;;
6207;SDS011;3137;51.550;7.060;2022-09-20T07:59:42;7.80;;;4.13;;
6207;SDS011;3137;51.550;7.060;2022-09-20T08:02:12;6.97;;;4.17;;
6207;SDS011;3137;51.550;7.060;2022-09-20T08:04:40;4.37;;;4.07;;
6207;SDS011;3137;51.550;7.060;2022-09-20T08:07:06;6.17;;;3.70;;
6207;SDS011;3137;51.550;7.060;2022-09-20T08:09:32;4.03;;;3.83;;
6207;SDS011;3137;51.550;7.060;2022-09-20T08:11:59;4.83;;;3.20;;
6207;SDS011;3137;51.550;7.060;2022-09-20T08:14:46;3.77;;;3.40;;
6207;SDS011;3137;51.550;7.060;2022-09-20T08:17:12;6.13;;;3.13;;
6207;SDS011;3137;51.550;7.060;2022-09-20T08:19:39;7.63;;;3.80;;
6207;SDS011;3137;51.550;7.060;2022-09-20T08:22:05;4.13;;;3.20;;
6207;SDS011;3137;51.550;7.060;2022-09-20T08:24:32;3.33;;;3.23;;
6207;SDS011;3137;51.550;7.060;2022-09-20T08:26:58;2.37;;;2.27;;
6207;SDS011;3137;51.550;7.060;2022-09-20T08:29:24;4.23;;;2.90;;
6207;SDS011;3137;51.550;7.060;2022-09-20T08:31:51;7.23;;;4.07;;
6207;SDS011;3137;51.550;7.060;2022-09-20T08:34:18;2.97;;;2.87;;
6207;SDS011;3137;51.550;7.060;2022-09-20T08:36:45;3.23;;;3.00;;
6207;SDS011;3137;51.550;7.060;2022-09-20T08:39:12;6.30;;;3.90;;
6207;SDS011;3137;51.550;7.060;2022-09-20T08:44:48;3.47;;;2.37;;
6207;SDS011;3137;51.550;7.060;2022-09-20T08:47:28;5.00;;;1.83;;
6207;SDS011;3137;51.550;7.060;2022-09-20T08:49:58;9.70;;;2.90;;
6207;SDS011;3137;51.550;7.060;2022-09-20T08:52:34;4.70;;;2.20;;
6207;SDS011;3137;51.550;7.060;2022-09-20T08:55:04;3.80;;;2.77;;
6207;SDS011;3137;51.550;7.060;2022-09-20T08:57:41;5.53;;;1.83;;
6207;SDS011;3137;51.550;7.060;2022-09-20T09:00:13;1.97;;;1.80;;
6207;SDS011;3137;51.550;7.060;2022-09-20T09:02:42;2.10;;;1.93;;
6207;SDS011;3137;51.550;7.060;2022-09-20T09:08:19;2.37;;;2.37;;
6207;SDS011;3137;51.550;7.060;2022-09-20T09:11:00;3.90;;;1.87;;
6207;SDS011;3137;51.550;7.060;2022-09-20T09:15:56;5.40;;;2.80;;
6207;SDS011;3137;51.550;7.060;2022-09-20T09:18:30;4.47;;;2.43;;
6207;SDS011;3137;51.550;7.060;2022-09-20T09:20:57;4.50;;;2.30;;
6207;SDS011;3137;51.550;7.060;2022-09-20T09:23:25;5.13;;;2.53;;
6207;SDS011;3137;51.550;7.060;2022-09-20T09:25:55;2.43;;;2.20;;
6207;SDS011;3137;51.550;7.060;2022-09-20T09:28:22;5.07;;;2.40;;
6207;SDS011;3137;51.550;7.060;2022-09-20T09:30:50;9.33;;;1.77;;
6207;SDS011;3137;51.550;7.060;2022-09-20T09:33:26;5.47;;;3.13;;
6207;SDS011;3137;51.550;7.060;2022-09-20T09:36:07;1.67;;;1.67;;
6207;SDS011;3137;51.550;7.060;2022-09-20T09:38:37;2.60;;;2.30;;
6207;SDS011;3137;51.550;7.060;2022-09-20T09:41:06;1.43;;;1.40;;
6207;SDS011;3137;51.550;7.060;2022-09-20T09:43:34;4.97;;;1.70;;
6207;SDS011;3137;51.550;7.060;2022-09-20T09:48:46;2.00;;;1.80;;
6207;SDS011;3137;51.550;7.060;2022-09-20T09:51:31;2.87;;;1.40;;
6207;SDS011;3137;51.550;7.060;2022-09-20T09:53:57;3.13;;;1.57;;
6207;SDS011;3137;51.550;7.060;2022-09-20T09:56:31;2.57;;;1.90;;
6207;SDS011;3137;51.550;7.060;2022-09-20T10:01:38;1.77;;;1.57;;
6207;SDS011;3137;51.550;7.060;2022-09-20T10:07:04;1.27;;;1.27;;
6207;SDS011;3137;51.550;7.060;2022-09-20T10:09:44;1.40;;;1.30;;
6207;SDS011;3137;51.550;7.060;2022-09-20T10:12:36;2.87;;;1.03;;
6207;SDS011;3137;51.550;7.060;2022-09-20T10:15:20;3.47;;;1.30;;
6207;SDS011;3137;51.550;7.060;2022-09-20T10:20:46;1.20;;;1.10;;
6207;SDS011;3137;51.550;7.060;2022-09-20T10:23:22;3.10;;;1.10;;
6207;SDS011;3137;51.550;7.060;2022-09-20T10:26:31;2.33;;;1.20;;
6207;SDS011;3137;51.550;7.060;2022-09-20T10:37:43;1.67;;;1.57;;
6207;SDS011;3137;51.550;7.060;2022-09-20T10:42:49;4.27;;;1.80;;
6207;SDS011;3137;51.550;7.060;2022-09-20T10:45:45;2.10;;;2.00;;
6207;SDS011;3137;51.550;7.060;2022-09-20T10:48:45;1.60;;;1.53;;
6207;SDS011;3137;51.550;7.060;2022-09-20T10:51:26;2.03;;;1.90;;
6207;SDS011;3137;51.550;7.060;2022-09-20T10:56:41;1.53;;;1.53;;
6207;SDS011;3137;51.550;7.060;2022-09-20T10:59:15;2.77;;;2.37;;
6207;SDS011;3137;51.550;7.060;2022-09-20T11:02:10;2.53;;;1.70;;
6207;SDS011;3137;51.550;7.060;2022-09-20T11:10:32;2.30;;;1.87;;
6207;SDS011;3137;51.550;7.060;2022-09-20T11:13:07;2.70;;;2.60;;
6207;SDS011;3137;51.550;7.060;2022-09-20T11:24:13;4.30;;;1.87;;
6207;SDS011;3137;51.550;7.060;2022-09-20T11:26:51;5.07;;;1.73;;
6207;SDS011;3137;51.550;7.060;2022-09-20T11:29:25;9.50;;;2.37;;
6207;SDS011;3137;51.550;7.060;2022-09-20T11:31:54;3.60;;;1.73;;
6207;SDS011;3137;51.550;7.060;2022-09-20T11:34:29;1.87;;;1.70;;
6207;SDS011;3137;51.550;7.060;2022-09-20T11:36:59;2.00;;;1.67;;
6207;SDS011;3137;51.550;7.060;2022-09-20T11:42:00;2.00;;;1.27;;
6207;SDS011;3137;51.550;7.060;2022-09-20T11:44:27;1.23;;;1.17;;
6207;SDS011;3137;51.550;7.060;2022-09-20T11:46:59;1.63;;;1.63;;
6207;SDS011;3137;51.550;7.060;2022-09-20T11:49:37;5.30;;;2.30;;
6207;SDS011;3137;51.550;7.060;2022-09-20T11:52:17;0.87;;;0.87;;
6207;SDS011;3137;51.550;7.060;2022-09-20T11:57:30;1.40;;;1.30;;
6207;SDS011;3137;51.550;7.060;2022-09-20T11:59:59;1.30;;;1.30;;
6207;SDS011;3137;51.550;7.060;2022-09-20T12:02:43;1.60;;;1.40;;
6207;SDS011;3137;51.550;7.060;2022-09-20T12:05:25;1.63;;;1.53;;
6207;SDS011;3137;51.550;7.060;2022-09-20T12:07:53;5.60;;;1.70;;
6207;SDS011;3137;51.550;7.060;2022-09-20T12:10:26;4.03;;;1.20;;
6207;SDS011;3137;51.550;7.060;2022-09-20T12:12:59;2.07;;;2.07;;
6207;SDS011;3137;51.550;7.060;2022-09-20T12:15:28;1.80;;;1.70;;
6207;SDS011;3137;51.550;7.060;2022-09-20T12:28:40;1.40;;;1.30;;
6207;SDS011;3137;51.550;7.060;2022-09-20T12:33:55;2.30;;;1.50;;
6207;SDS011;3137;51.550;7.060;2022-09-20T12:36:23;2.83;;;1.40;;
6207;SDS011;3137;51.550;7.060;2022-09-20T12:38:53;1.40;;;1.40;;
6207;SDS011;3137;51.550;7.060;2022-09-20T12:41:22;1.57;;;1.57;;
6207;SDS011;3137;51.550;7.060;2022-09-20T12:46:21;1.80;;;1.40;;
6207;SDS011;3137;51.550;7.060;2022-09-20T12:49:08;3.50;;;1.30;;
6207;SDS011;3137;51.550;7.060;2022-09-20T12:52:02;1.57;;;1.57;;
6207;SDS011;3137;51.550;7.060;2022-09-20T12:54:49;1.30;;;1.30;;
6207;SDS011;3137;51.550;7.060;2022-09-20T12:57:37;1.60;;;1.50;;
6207;SDS011;3137;51.550;7.060;2022-09-20T13:00:04;1.17;;;1.17;;
6207;SDS011;3137;51.550;7.060;2022-09-20T13:05:32;1.47;;;1.47;;
6207;SDS011;3137;51.550;7.060;2022-09-20T13:08:08;6.53;;;1.83;;
6207;SDS011;3137;51.550;7.060;2022-09-20T13:10:40;1.17;;;1.17;;
6207;SDS011;3137;51.550;7.060;2022-09-20T13:13:30;1.40;;;1.40;;
6207;SDS011;3137;51.550;7.060;2022-09-20T13:16:11;1.67;;;1.67;;
6207;SDS011;3137;51.550;7.060;2022-09-20T13:18:49;2.20;;;1.37;;
6207;SDS011;3137;51.550;7.060;2022-09-20T13:21:25;1.50;;;1.50;;
6207;SDS011;3137;51.550;7.060;2022-09-20T13:23:53;1.73;;;1.73;;
6207;SDS011;3137;51.550;7.060;2022-09-20T13:26:21;1.50;;;1.50;;
6207;SDS011;3137;51.550;7.060;2022-09-20T13:28:50;1.37;;;1.37;;
6207;SDS011;3137;51.550;7.060;2022-09-20T13:33:46;1.40;;;1.40;;
6207;SDS011;3137;51.550;7.060;2022-09-20T13:36:12;5.80;;;1.47;;
6207;SDS011;3137;51.550;7.060;2022-09-20T13:38:39;1.00;;;1.00;;
6207;SDS011;3137;51.550;7.060;2022-09-20T13:41:07;1.63;;;1.57;;
6207;SDS011;3137;51.550;7.060;2022-09-20T13:43:41;1.37;;;1.37;;
6207;SDS011;3137;51.550;7.060;2022-09-20T13:48:36;1.50;;;1.50;;
6207;SDS011;3137;51.550;7.060;2022-09-20T13:51:02;2.00;;;1.20;;
6207;SDS011;3137;51.550;7.060;2022-09-20T13:53:29;1.03;;;1.03;;
6207;SDS011;3137;51.550;7.060;2022-09-20T13:56:17;1.23;;;1.20;;
6207;SDS011;3137;51.550;7.060;2022-09-20T13:58:45;1.23;;;1.23;;
6207;SDS011;3137;51.550;7.060;2022-09-20T14:01:21;1.20;;;1.20;;
6207;SDS011;3137;51.550;7.060;2022-09-20T14:03:48;1.27;;;1.27;;
6207;SDS011;3137;51.550;7.060;2022-09-20T14:06:14;1.30;;;1.30;;
6207;SDS011;3137;51.550;7.060;2022-09-20T14:08:45;1.20;;;1.20;;
6207;SDS011;3137;51.550;7.060;2022-09-20T14:11:15;1.10;;;1.10;;
6207;SDS011;3137;51.550;7.060;2022-09-20T14:13:43;5.10;;;1.30;;
6207;SDS011;3137;51.550;7.060;2022-09-20T14:16:11;1.27;;;1.20;;
6207;SDS011;3137;51.550;7.060;2022-09-20T14:18:38;1.23;;;1.23;;
6207;SDS011;3137;51.550;7.060;2022-09-20T14:21:06;5.10;;;1.50;;
6207;SDS011;3137;51.550;7.060;2022-09-20T14:23:48;2.03;;;1.70;;
6207;SDS011;3137;51.550;7.060;2022-09-20T14:26:20;2.57;;;1.73;;
6207;SDS011;3137;51.550;7.060;2022-09-20T14:28:47;1.67;;;1.67;;
6207;SDS011;3137;51.550;7.060;2022-09-20T14:33:56;1.83;;;1.83;;
6207;SDS011;3137;51.550;7.060;2022-09-20T14:36:24;1.27;;;1.27;;
6207;SDS011;3137;51.550;7.060;2022-09-20T14:38:53;1.43;;;1.43;;
6207;SDS011;3137;51.550;7.060;2022-09-20T14:41:26;1.00;;;1.00;;
6207;SDS011;3137;51.550;7.060;2022-09-20T14:43:58;1.37;;;1.37;;
6207;SDS011;3137;51.550;7.060;2022-09-20T14:46:28;1.00;;;1.00;;
6207;SDS011;3137;51.550;7.060;2022-09-20T14:49:17;1.60;;;1.50;;
6207;SDS011;3137;51.550;7.060;2022-09-20T14:54:59;4.00;;;1.40;;
6207;SDS011;3137;51.550;7.060;2022-09-20T14:57:26;1.50;;;1.50;;
6207;SDS011;3137;51.550;7.060;2022-09-20T14:59:53;2.03;;;1.93;;
6207;SDS011;3137;51.550;7.060;2022-09-20T15:02:20;11.07;;;1.70;;
6207;SDS011;3137;51.550;7.060;2022-09-20T15:04:56;1.70;;;1.70;;
6207;SDS011;3137;51.550;7.060;2022-09-20T15:07:25;1.47;;;1.40;;
6207;SDS011;3137;51.550;7.060;2022-09-20T15:09:51;1.83;;;1.73;;
6207;SDS011;3137;51.550;7.060;2022-09-20T15:12:18;2.53;;;1.63;;
6207;SDS011;3137;51.550;7.060;2022-09-20T15:14:46;1.77;;;1.77;;
6207;SDS011;3137;51.550;7.060;2022-09-20T15:17:14;1.93;;;1.83;;
6207;SDS011;3137;51.550;7.060;2022-09-20T15:19:43;1.60;;;1.60;;
6207;SDS011;3137;51.550;7.060;2022-09-20T15:22:10;1.40;;;1.40;;
6207;SDS011;3137;51.550;7.060;2022-09-20T15:24:36;1.70;;;1.60;;
6207;SDS011;3137;51.550;7.060;2022-09-20T15:27:03;1.63;;;1.63;;
6207;SDS011;3137;51.550;7.060;2022-09-20T15:29:30;1.77;;;1.77;;
6207;SDS011;3137;51.550;7.060;2022-09-20T15:31:56;1.73;;;1.63;;
6207;SDS011;3137;51.550;7.060;2022-09-20T15:34:22;3.57;;;2.13;;
6207;SDS011;3137;51.550;7.060;2022-09-20T15:36:49;2.67;;;2.57;;
6207;SDS011;3137;51.550;7.060;2022-09-20T15:39:15;3.30;;;1.70;;
6207;SDS011;3137;51.550;7.060;2022-09-20T15:41:42;3.87;;;1.57;;
6207;SDS011;3137;51.550;7.060;2022-09-20T15:44:10;2.73;;;1.50;;
6207;SDS011;3137;51.550;7.060;2022-09-20T15:46:36;1.40;;;1.30;;
6207;SDS011;3137;51.550;7.060;2022-09-20T15:49:03;2.73;;;1.40;;
6207;SDS011;3137;51.550;7.060;2022-09-20T15:51:31;1.67;;;1.67;;
6207;SDS011;3137;51.550;7.060;2022-09-20T15:53:59;1.67;;;1.57;;
6207;SDS011;3137;51.550;7.060;2022-09-20T15:56:32;2.53;;;1.57;;
6207;SDS011;3137;51.550;7.060;2022-09-20T15:59:00;4.67;;;1.90;;
6207;SDS011;3137;51.550;7.060;2022-09-20T16:03:58;1.13;;;1.13;;
6207;SDS011;3137;51.550;7.060;2022-09-20T16:06:25;2.10;;;2.10;;
6207;SDS011;3137;51.550;7.060;2022-09-20T16:08:51;2.13;;;1.90;;
6207;SDS011;3137;51.550;7.060;2022-09-20T16:11:19;4.90;;;1.30;;
6207;SDS011;3137;51.550;7.060;2022-09-20T16:13:52;4.97;;;2.03;;
6207;SDS011;3137;51.550;7.060;2022-09-20T16:16:19;2.30;;;2.07;;
6207;SDS011;3137;51.550;7.060;2022-09-20T16:18:46;1.60;;;1.60;;
6207;SDS011;3137;51.550;7.060;2022-09-20T16:21:31;2.07;;;1.93;;
6207;SDS011;3137;51.550;7.060;2022-09-20T16:23:58;1.60;;;1.60;;
6207;SDS011;3137;51.550;7.060;2022-09-20T16:26:25;1.97;;;1.87;;
6207;SDS011;3137;51.550;7.060;2022-09-20T16:28:52;5.03;;;1.90;;
6207;SDS011;3137;51.550;7.060;2022-09-20T16:31:27;1.87;;;1.87;;
6207;SDS011;3137;51.550;7.060;2022-09-20T16:36:37;2.23;;;2.13;;
6207;SDS011;3137;51.550;7.060;2022-09-20T16:39:03;1.80;;;1.80;;
6207;SDS011;3137;51.550;7.060;2022-09-20T16:41:30;1.93;;;1.90;;
6207;SDS011;3137;51.550;7.060;2022-09-20T16:43:57;2.20;;;2.20;;
6207;SDS011;3137;51.550;7.060;2022-09-20T16:46:24;1.40;;;1.30;;
6207;SDS011;3137;51.550;7.060;2022-09-20T16:48:54;4.33;;;1.33;;
6207;SDS011;3137;51.550;7.060;2022-09-20T16:51:23;1.90;;;1.90;;
6207;SDS011;3137;51.550;7.060;2022-09-20T16:53:51;3.23;;;1.57;;
6207;SDS011;3137;51.550;7.060;2022-09-20T16:56:21;1.80;;;1.80;;
6207;SDS011;3137;51.550;7.060;2022-09-20T16:58:50;1.80;;;1.80;;
6207;SDS011;3137;51.550;7.060;2022-09-20T17:01:17;1.40;;;1.40;;
6207;SDS011;3137;51.550;7.060;2022-09-20T17:03:44;1.77;;;1.77;;
6207;SDS011;3137;51.550;7.060;2022-09-20T17:06:12;1.77;;;1.77;;
6207;SDS011;3137;51.550;7.060;2022-09-20T17:08:39;2.93;;;1.87;;
6207;SDS011;3137;51.550;7.060;2022-09-20T17:11:06;1.73;;;1.73;;
6207;SDS011;3137;51.550;7.060;2022-09-20T17:13:35;3.00;;;2.17;;
6207;SDS011;3137;51.550;7.060;2022-09-20T17:16:07;1.13;;;1.13;;
6207;SDS011;3137;51.550;7.060;2022-09-20T17:18:34;1.60;;;1.60;;
6207;SDS011;3137;51.550;7.060;2022-09-20T17:21:04;4.83;;;1.97;;
6207;SDS011;3137;51.550;7.060;2022-09-20T17:23:31;2.27;;;2.27;;
6207;SDS011;3137;51.550;7.060;2022-09-20T17:26:05;1.40;;;1.37;;
6207;SDS011;3137;51.550;7.060;2022-09-20T17:28:38;2.60;;;1.70;;
6207;SDS011;3137;51.550;7.060;2022-09-20T17:31:05;1.73;;;1.63;;
6207;SDS011;3137;51.550;7.060;2022-09-20T17:33:32;1.43;;;1.43;;
6207;SDS011;3137;51.550;7.060;2022-09-20T17:35:59;1.80;;;1.70;;
6207;SDS011;3137;51.550;7.060;2022-09-20T17:38:27;3.20;;;1.63;;
6207;SDS011;3137;51.550;7.060;2022-09-20T17:41:02;2.03;;;1.93;;
6207;SDS011;3137;51.550;7.060;2022-09-20T17:43:29;1.80;;;1.70;;
6207;SDS011;3137;51.550;7.060;2022-09-20T17:46:03;1.57;;;1.57;;
6207;SDS011;3137;51.550;7.060;2022-09-20T17:48:31;3.33;;;1.73;;
6207;SDS011;3137;51.550;7.060;2022-09-20T17:50:59;1.43;;;1.43;;
6207;SDS011;3137;51.550;7.060;2022-09-20T17:53:26;1.87;;;1.87;;
6207;SDS011;3137;51.550;7.060;2022-09-20T17:55:56;1.73;;;1.73;;
6207;SDS011;3137;51.550;7.060;2022-09-20T17:58:23;1.87;;;1.87;;
6207;SDS011;3137;51.550;7.060;2022-09-20T18:00:50;1.27;;;1.27;;
6207;SDS011;3137;51.550;7.060;2022-09-20T18:03:21;1.40;;;1.40;;
6207;SDS011;3137;51.550;7.060;2022-09-20T18:05:49;2.83;;;1.00;;
6207;SDS011;3137;51.550;7.060;2022-09-20T18:08:17;1.70;;;1.70;;
6207;SDS011;3137;51.550;7.060;2022-09-20T18:10:54;1.70;;;1.70;;
6207;SDS011;3137;51.550;7.060;2022-09-20T18:13:23;1.60;;;1.60;;
6207;SDS011;3137;51.550;7.060;2022-09-20T18:15:52;1.23;;;1.23;;
6207;SDS011;3137;51.550;7.060;2022-09-20T18:18:19;1.47;;;1.43;;
6207;SDS011;3137;51.550;7.060;2022-09-20T18:20:46;1.60;;;1.60;;
6207;SDS011;3137;51.550;7.060;2022-09-20T18:23:12;3.00;;;1.63;;
6207;SDS011;3137;51.550;7.060;2022-09-20T18:25:39;2.07;;;1.80;;
6207;SDS011;3137;51.550;7.060;2022-09-20T18:28:24;1.70;;;1.70;;
6207;SDS011;3137;51.550;7.060;2022-09-20T18:31:00;1.50;;;1.40;;
6207;SDS011;3137;51.550;7.060;2022-09-20T18:33:28;2.20;;;2.10;;
6207;SDS011;3137;51.550;7.060;2022-09-20T18:36:02;2.37;;;2.27;;
6207;SDS011;3137;51.550;7.060;2022-09-20T18:38:31;3.27;;;2.20;;
6207;SDS011;3137;51.550;7.060;2022-09-20T18:41:01;2.80;;;1.67;;
6207;SDS011;3137;51.550;7.060;2022-09-20T18:43:28;1.47;;;1.47;;
6207;SDS011;3137;51.550;7.060;2022-09-20T18:45:56;1.10;;;1.10;;
6207;SDS011;3137;51.550;7.060;2022-09-20T18:48:23;1.70;;;1.60;;
6207;SDS011;3137;51.550;7.060;2022-09-20T18:51:03;1.77;;;1.77;;
6207;SDS011;3137;51.550;7.060;2022-09-20T18:53:31;1.87;;;1.80;;
6207;SDS011;3137;51.550;7.060;2022-09-20T18:56:07;3.50;;;1.53;;
6207;SDS011;3137;51.550;7.060;2022-09-20T18:58:43;1.70;;;1.60;;
6207;SDS011;3137;51.550;7.060;2022-09-20T19:03:42;1.63;;;1.50;;
6207;SDS011;3137;51.550;7.060;2022-09-20T19:06:22;2.03;;;2.03;;
6207;SDS011;3137;51.550;7.060;2022-09-20T19:08:56;1.83;;;1.80;;
6207;SDS011;3137;51.550;7.060;2022-09-20T19:12:03;1.97;;;1.97;;
6207;SDS011;3137;51.550;7.060;2022-09-20T19:14:29;1.63;;;1.63;;
6207;SDS011;3137;51.550;7.060;2022-09-20T19:17:08;3.60;;;1.77;;
6207;SDS011;3137;51.550;7.060;2022-09-20T19:19:37;2.30;;;2.10;;
6207;SDS011;3137;51.550;7.060;2022-09-20T19:25:15;1.43;;;1.43;;
6207;SDS011;3137;51.550;7.060;2022-09-20T19:27:46;1.83;;;1.83;;
6207;SDS011;3137;51.550;7.060;2022-09-20T19:30:13;1.97;;;1.97;;
6207;SDS011;3137;51.550;7.060;2022-09-20T19:32:40;2.00;;;2.00;;
6207;SDS011;3137;51.550;7.060;2022-09-20T19:35:13;3.10;;;2.10;;
6207;SDS011;3137;51.550;7.060;2022-09-20T19:40:26;1.70;;;1.60;;
6207;SDS011;3137;51.550;7.060;2022-09-20T19:43:04;3.10;;;1.73;;
6207;SDS011;3137;51.550;7.060;2022-09-20T19:45:44;2.50;;;2.40;;
6207;SDS011;3137;51.550;7.060;2022-09-20T19:48:31;1.70;;;1.70;;
6207;SDS011;3137;51.550;7.060;2022-09-20T19:51:10;2.17;;;2.07;;
6207;SDS011;3137;51.550;7.060;2022-09-20T19:53:37;1.90;;;1.90;;
6207;SDS011;3137;51.550;7.060;2022-09-20T19:58:33;1.70;;;1.63;;
6207;SDS011;3137;51.550;7.060;2022-09-20T20:01:00;2.33;;;2.23;;
6207;SDS011;3137;51.550;7.060;2022-09-20T20:03:27;1.60;;;1.60;;
6207;SDS011;3137;51.550;7.060;2022-09-20T20:08:44;2.37;;;1.97;;
6207;SDS011;3137;51.550;7.060;2022-09-20T20:11:29;2.10;;;2.00;;
6207;SDS011;3137;51.550;7.060;2022-09-20T20:17:11;2.63;;;2.20;;